createdAt,value
2022-10-12T00:01:08.286Z,68.64
2022-10-12T00:03:36.844Z,68.86
2022-10-12T00:06:08.754Z,68.90
2022-10-12T00:08:37.416Z,68.88
2022-10-12T00:11:06.143Z,69.02
2022-10-12T00:13:34.237Z,68.93
2022-10-12T00:16:07.187Z,69.67
2022-10-12T00:18:35.640Z,68.61
2022-10-12T00:21:09.570Z,69.08
2022-10-12T00:23:38.293Z,69.10
2022-10-12T00:26:09.354Z,69.42
2022-10-12T00:28:37.019Z,69.03
2022-10-12T00:31:13.094Z,69.43
2022-10-12T00:33:41.213Z,69.04
2022-10-12T00:36:30.159Z,69.96
2022-10-12T00:38:57.729Z,69.14
2022-10-12T00:41:29.429Z,69.13
2022-10-12T00:43:58.772Z,68.84
2022-10-12T00:46:33.333Z,69.42
2022-10-12T00:49:17.115Z,69.94
2022-10-12T00:51:50.618Z,69.29
2022-10-12T00:54:24.998Z,69.08
2022-10-12T00:56:54.810Z,68.98
2022-10-12T00:59:28.598Z,68.99
2022-10-12T01:01:56.417Z,68.79
2022-10-12T01:04:24.687Z,68.69
2022-10-12T01:06:53.011Z,68.57
2022-10-12T01:09:21.549Z,68.62
2022-10-12T01:11:49.514Z,69.03
2022-10-12T01:14:17.434Z,68.61
2022-10-12T01:16:54.531Z,69.62
2022-10-12T01:19:43.198Z,69.28
2022-10-12T01:22:18.263Z,69.35
2022-10-12T01:24:53.070Z,69.58
2022-10-12T01:27:26.281Z,68.83
2022-10-12T01:30:05.864Z,69.31
2022-10-12T01:32:45.099Z,68.96
2022-10-12T01:35:26.837Z,69.51
2022-10-12T01:38:42.766Z,70.14
2022-10-12T01:41:15.814Z,68.92
2022-10-12T01:43:45.172Z,68.81
2022-10-12T01:46:18.250Z,69.38
2022-10-12T01:48:49.174Z,69.13
2022-10-12T01:51:23.631Z,68.98
2022-10-12T01:54:14.204Z,69.69
2022-10-12T01:57:12.353Z,70.19
2022-10-12T02:00:02.814Z,69.69
2022-10-12T02:02:33.022Z,69.13
2022-10-12T02:05:44.698Z,70.69
2022-10-12T02:08:34.023Z,70.44
2022-10-12T02:11:16.661Z,70.38
2022-10-12T02:13:48.412Z,69.49
2022-10-12T02:16:20.032Z,69.80
2022-10-12T02:18:53.118Z,69.93
2022-10-12T02:21:29.440Z,70.47
2022-10-12T02:24:01.072Z,70.14
2022-10-12T02:26:32.180Z,69.95
2022-10-12T02:29:03.875Z,69.83
2022-10-12T02:31:47.768Z,70.79
2022-10-12T02:34:19.038Z,69.80
2022-10-12T02:37:15.336Z,69.85
2022-10-12T02:39:54.338Z,69.89
2022-10-12T02:42:46.505Z,70.24
2022-10-12T02:45:23.594Z,69.41
2022-10-12T02:47:54.415Z,69.71
2022-10-12T02:50:24.723Z,69.47
2022-10-12T02:52:53.338Z,69.20
2022-10-12T02:55:20.839Z,69.08
2022-10-12T02:57:48.348Z,69.25
2022-10-12T03:00:16.515Z,69.26
2022-10-12T03:02:44.036Z,68.69
2022-10-12T03:05:11.440Z,69.14
2022-10-12T03:07:39.198Z,68.78
2022-10-12T03:10:07.287Z,69.14
2022-10-12T03:12:34.742Z,69.58
2022-10-12T03:15:02.162Z,69.32
2022-10-12T03:17:31.048Z,69.10
2022-10-12T03:19:58.446Z,69.29
2022-10-12T03:22:25.934Z,69.13
2022-10-12T03:24:53.462Z,69.55
2022-10-12T03:27:20.991Z,69.50
2022-10-12T03:29:48.486Z,69.73
2022-10-12T03:32:16.179Z,69.25
2022-10-12T03:34:43.726Z,69.23
2022-10-12T03:37:11.296Z,69.61
2022-10-12T03:39:38.801Z,69.58
2022-10-12T03:42:06.252Z,69.47
2022-10-12T03:44:33.694Z,69.31
2022-10-12T03:47:01.107Z,69.60
2022-10-12T03:49:28.836Z,69.08
2022-10-12T03:51:56.331Z,69.59
2022-10-12T03:54:26.060Z,70.03
2022-10-12T03:56:53.752Z,69.11
2022-10-12T03:59:21.182Z,69.05
2022-10-12T04:01:49.000Z,68.85
2022-10-12T04:04:16.670Z,68.80
2022-10-12T04:06:46.353Z,69.21
2022-10-12T04:09:13.793Z,68.82
2022-10-12T04:11:41.241Z,68.51
2022-10-12T04:14:08.782Z,68.62
2022-10-12T04:16:36.200Z,68.58
2022-10-12T04:19:03.715Z,68.31
2022-10-12T04:21:31.990Z,68.23
2022-10-12T04:23:59.398Z,67.76
2022-10-12T04:26:26.972Z,67.59
2022-10-12T04:28:54.461Z,67.34
2022-10-12T04:31:21.994Z,67.16
2022-10-12T04:33:49.473Z,66.67
2022-10-12T04:36:16.965Z,66.44
2022-10-12T04:38:44.467Z,66.08
2022-10-12T04:41:12.017Z,65.72
2022-10-12T04:43:39.432Z,65.71
2022-10-12T04:46:07.083Z,64.97
2022-10-12T04:48:34.487Z,64.88
2022-10-12T04:51:02.034Z,64.15
2022-10-12T04:53:29.779Z,63.12
2022-10-12T04:55:57.824Z,62.66
2022-10-12T04:58:25.313Z,61.96
2022-10-12T05:00:52.884Z,61.33
2022-10-12T05:03:20.396Z,60.58
2022-10-12T05:05:47.895Z,59.64
2022-10-12T05:08:15.530Z,59.04
2022-10-12T05:10:43.143Z,57.94
2022-10-12T05:13:10.556Z,57.36
2022-10-12T05:15:38.051Z,56.71
2022-10-12T05:18:05.683Z,56.45
2022-10-12T05:20:33.252Z,56.53
2022-10-12T05:23:00.845Z,56.35
2022-10-12T05:25:29.758Z,56.64
2022-10-12T05:27:57.516Z,56.86
2022-10-12T05:30:24.925Z,56.55
2022-10-12T05:32:52.502Z,56.46
2022-10-12T05:35:23.180Z,56.54
2022-10-12T05:37:50.738Z,55.94
2022-10-12T05:40:18.351Z,55.09
2022-10-12T05:42:46.062Z,54.39
2022-10-12T05:45:13.594Z,53.87
2022-10-12T05:47:41.641Z,53.11
2022-10-12T05:50:09.734Z,52.36
2022-10-12T05:52:37.564Z,51.26
2022-10-12T05:55:05.702Z,50.42
2022-10-12T05:57:33.278Z,50.19
2022-10-12T06:00:00.777Z,49.75
2022-10-12T06:02:28.346Z,49.53
2022-10-12T06:04:55.772Z,49.04
2022-10-12T06:07:23.315Z,48.08
2022-10-12T06:09:51.189Z,47.38
2022-10-12T06:12:18.710Z,47.28
2022-10-12T06:14:46.364Z,47.53
2022-10-12T06:17:13.814Z,47.53
2022-10-12T06:19:41.199Z,47.44
2022-10-12T06:22:08.684Z,47.47
2022-10-12T06:24:36.200Z,47.32
2022-10-12T06:27:03.900Z,46.43
2022-10-12T06:29:31.448Z,46.00
2022-10-12T06:31:59.378Z,44.34
2022-10-12T06:34:26.798Z,42.78
2022-10-12T06:36:57.120Z,41.85
2022-10-12T06:39:28.379Z,40.27
2022-10-12T06:41:55.816Z,39.24
2022-10-12T06:44:23.600Z,38.34
2022-10-12T06:46:51.056Z,37.56
2022-10-12T06:49:18.508Z,37.24
2022-10-12T06:51:46.226Z,37.50
2022-10-12T06:54:13.735Z,38.35
2022-10-12T06:56:41.403Z,38.68
2022-10-12T06:59:11.037Z,39.46
2022-10-12T07:01:39.008Z,39.40
2022-10-12T07:04:06.712Z,39.74
2022-10-12T07:06:34.174Z,40.49
2022-10-12T07:09:04.046Z,40.80
2022-10-12T07:11:31.584Z,40.86
2022-10-12T07:13:59.037Z,41.32
2022-10-12T07:16:26.524Z,41.15
2022-10-12T07:18:54.075Z,40.86
2022-10-12T07:21:24.551Z,40.67
2022-10-12T07:23:52.968Z,41.04
2022-10-12T07:26:20.513Z,41.12
2022-10-12T07:28:48.709Z,41.01
2022-10-12T07:31:16.237Z,41.23
2022-10-12T07:33:43.691Z,40.94
2022-10-12T07:36:17.289Z,40.15
2022-10-12T07:38:49.176Z,39.99
2022-10-12T07:41:17.801Z,39.18
2022-10-12T07:46:43.173Z,38.19
2022-10-12T07:53:19.213Z,35.96
2022-10-12T07:57:00.099Z,34.48
2022-10-12T08:00:16.354Z,35.57
2022-10-12T08:02:44.015Z,36.05
2022-10-12T08:05:38.162Z,36.15
2022-10-12T08:09:19.676Z,36.61
2022-10-12T08:12:02.499Z,36.79
2022-10-12T08:14:42.092Z,36.77
2022-10-12T08:17:10.073Z,36.98
2022-10-12T08:20:04.644Z,37.01
2022-10-12T08:22:50.712Z,37.03
2022-10-12T08:25:24.296Z,37.15
2022-10-12T08:28:10.157Z,37.34
2022-10-12T08:30:39.285Z,37.53
2022-10-12T08:33:10.274Z,37.94
2022-10-12T08:35:39.253Z,38.19
2022-10-12T08:38:07.910Z,37.96
2022-10-12T08:40:45.868Z,37.86
2022-10-12T08:43:22.206Z,38.40
2022-10-12T08:46:00.886Z,39.65
2022-10-12T08:48:31.111Z,38.96
2022-10-12T08:51:03.297Z,39.11
2022-10-12T08:53:50.864Z,38.99
2022-10-12T08:56:19.164Z,38.88
2022-10-12T08:58:48.102Z,38.82
2022-10-12T09:01:30.698Z,38.25
2022-10-12T09:04:29.690Z,37.86
2022-10-12T09:07:12.445Z,37.70
2022-10-12T09:10:17.848Z,37.90
2022-10-12T09:12:55.759Z,36.97
2022-10-12T09:15:29.204Z,36.20
2022-10-12T09:17:59.726Z,35.53
2022-10-12T09:20:30.793Z,35.28
2022-10-12T09:23:22.366Z,34.55
2022-10-12T09:25:50.715Z,34.69
2022-10-12T09:28:42.128Z,34.02
2022-10-12T09:31:09.661Z,34.21
2022-10-12T09:33:58.839Z,33.90
2022-10-12T09:36:33.839Z,34.44
2022-10-12T09:39:05.292Z,34.81
2022-10-12T09:41:40.951Z,35.17
2022-10-12T09:44:16.937Z,35.22
2022-10-12T09:46:55.390Z,35.20
2022-10-12T09:49:51.815Z,35.51
2022-10-12T09:52:27.855Z,35.05
2022-10-12T09:55:05.913Z,35.51
2022-10-12T09:57:39.932Z,35.36
2022-10-12T10:00:25.214Z,35.16
2022-10-12T10:02:53.661Z,35.24
2022-10-12T10:05:24.453Z,35.59
2022-10-12T10:07:52.210Z,35.71
2022-10-12T10:10:29.271Z,35.45
2022-10-12T10:13:03.061Z,35.78
2022-10-12T10:15:41.410Z,36.64
2022-10-12T10:26:26.599Z,35.93
2022-10-12T10:28:58.808Z,35.84
2022-10-12T10:31:29.367Z,35.60
2022-10-12T10:42:34.904Z,36.29
2022-10-12T10:45:07.340Z,36.59
2022-10-12T10:47:47.080Z,37.61
2022-10-12T10:50:27.452Z,38.32
2022-10-12T10:52:59.452Z,38.36
2022-10-12T10:55:44.611Z,37.59
2022-10-12T10:58:51.269Z,35.26
2022-10-12T11:01:45.423Z,31.30
2022-10-12T11:04:23.070Z,27.92
2022-10-12T11:06:54.009Z,26.69
2022-10-12T11:09:31.701Z,24.68
2022-10-12T11:12:08.850Z,23.23
2022-10-12T11:14:48.991Z,22.86
2022-10-12T11:17:27.098Z,22.65
2022-10-12T11:20:37.637Z,21.40
2022-10-12T11:23:42.348Z,20.67
2022-10-12T11:26:38.539Z,19.54
2022-10-12T11:29:06.652Z,20.81
2022-10-12T11:31:38.232Z,22.14
2022-10-12T11:34:13.297Z,24.13
2022-10-12T11:36:55.803Z,26.54
2022-10-12T11:39:37.002Z,29.04
2022-10-12T11:42:27.099Z,30.85
2022-10-12T11:44:55.152Z,31.97
2022-10-12T11:47:22.545Z,33.09
2022-10-12T11:49:57.925Z,34.49
2022-10-12T11:52:36.290Z,35.45
2022-10-12T11:55:42.918Z,37.76
2022-10-12T11:58:24.406Z,38.57
2022-10-12T12:01:07.695Z,39.37
2022-10-12T12:04:41.087Z,40.95
2022-10-12T12:07:38.224Z,41.65
2022-10-12T12:10:26.731Z,42.74
2022-10-12T12:13:18.000Z,42.86
2022-10-12T12:15:49.738Z,43.14
2022-10-12T12:18:28.050Z,44.36
2022-10-12T12:21:10.398Z,44.93
2022-10-12T12:23:49.913Z,45.26
2022-10-12T12:26:19.293Z,45.16
2022-10-12T12:29:09.874Z,46.75
2022-10-12T12:31:38.107Z,45.94
2022-10-12T12:34:17.371Z,47.89
2022-10-12T12:36:51.655Z,47.74
2022-10-12T12:39:32.806Z,48.81
2022-10-12T12:42:09.376Z,49.20
2022-10-12T12:44:42.983Z,49.39
2022-10-12T12:50:02.017Z,50.08
2022-10-12T12:52:35.020Z,49.85
2022-10-12T12:55:14.535Z,51.56
2022-10-12T12:58:00.682Z,51.84
2022-10-12T13:01:06.589Z,51.41
2022-10-12T13:03:48.724Z,52.39
2022-10-12T13:06:30.218Z,52.58
2022-10-12T13:09:20.959Z,52.89
2022-10-12T13:11:57.025Z,52.92
2022-10-12T13:14:47.126Z,53.54
2022-10-12T13:17:32.207Z,52.30
2022-10-12T13:20:06.517Z,53.13
2022-10-12T13:22:35.555Z,53.02
2022-10-12T13:25:07.161Z,53.80
2022-10-12T13:27:46.677Z,55.17
2022-10-12T13:30:32.756Z,55.25
2022-10-12T13:33:10.066Z,55.53
2022-10-12T13:35:55.702Z,55.54
2022-10-12T13:38:26.422Z,54.33
2022-10-12T13:41:08.569Z,56.44
2022-10-12T13:43:43.925Z,56.07
2022-10-12T13:46:35.810Z,56.78
2022-10-12T13:49:04.359Z,57.02
2022-10-12T13:51:32.046Z,57.76
2022-10-12T13:53:59.555Z,58.31
2022-10-12T13:56:29.085Z,59.54
2022-10-12T13:59:05.586Z,61.51
2022-10-12T14:01:51.731Z,62.35
2022-10-12T14:04:19.528Z,60.42
2022-10-12T14:06:53.018Z,61.00
2022-10-12T14:09:24.158Z,61.43
2022-10-12T14:11:53.520Z,61.16
2022-10-12T14:14:30.110Z,62.62
2022-10-12T14:16:57.767Z,61.37
2022-10-12T14:19:40.258Z,63.55
2022-10-12T14:22:08.351Z,61.98
2022-10-12T14:24:37.119Z,62.19
2022-10-12T14:27:06.650Z,62.48
2022-10-12T14:29:45.465Z,64.05
2022-10-12T14:32:26.528Z,64.07
2022-10-12T14:35:27.601Z,64.10
2022-10-12T14:38:41.199Z,63.31
2022-10-12T14:41:36.410Z,64.19
2022-10-12T14:44:10.879Z,63.70
2022-10-12T14:46:41.883Z,63.43
2022-10-12T14:49:18.591Z,64.87
2022-10-12T14:51:47.870Z,63.38
2022-10-12T14:54:15.613Z,63.35
2022-10-12T14:56:43.082Z,63.47
2022-10-12T15:07:16.224Z,64.93
2022-10-12T15:09:44.615Z,63.38
2022-10-12T15:12:14.493Z,64.24
2022-10-12T15:14:43.051Z,64.28
2022-10-12T15:17:39.702Z,65.36
2022-10-12T15:20:10.964Z,64.64
2022-10-12T15:22:39.126Z,64.80
2022-10-12T15:25:18.999Z,66.11
2022-10-12T15:27:46.568Z,65.14
2022-10-12T15:30:14.928Z,65.39
2022-10-12T15:32:42.813Z,65.53
2022-10-12T15:35:18.934Z,67.12
2022-10-12T15:37:47.173Z,65.89
2022-10-12T15:40:16.384Z,66.02
2022-10-12T15:42:44.209Z,66.30
2022-10-12T15:45:27.054Z,67.93
2022-10-12T15:47:55.123Z,66.73
2022-10-12T15:50:29.075Z,67.61
2022-10-12T15:52:57.133Z,66.95
2022-10-12T15:55:27.704Z,67.54
2022-10-12T15:57:56.394Z,67.16
2022-10-12T16:00:27.338Z,67.98
2022-10-12T16:02:56.683Z,67.62
2022-10-12T16:05:33.156Z,69.30
2022-10-12T16:08:01.842Z,68.05
2022-10-12T16:10:33.099Z,68.57
2022-10-12T16:13:01.240Z,68.42
2022-10-12T16:15:33.047Z,68.79
2022-10-12T16:18:02.331Z,68.86
2022-10-12T16:20:31.481Z,69.09
2022-10-12T16:23:00.828Z,69.03
2022-10-12T16:25:28.484Z,69.56
2022-10-12T16:27:57.528Z,69.69
2022-10-12T16:30:26.184Z,69.65
2022-10-12T16:32:54.430Z,69.92
2022-10-12T16:35:21.960Z,69.96
2022-10-12T16:37:49.786Z,70.16
2022-10-12T16:40:17.451Z,70.34
2022-10-12T16:42:44.961Z,70.77
2022-10-12T16:45:13.211Z,70.90
2022-10-12T16:47:42.689Z,70.87
2022-10-12T16:50:10.711Z,71.05
2022-10-12T16:52:38.461Z,71.27
2022-10-12T16:55:06.704Z,71.52
2022-10-12T16:57:34.233Z,71.58
2022-10-12T17:00:02.003Z,71.67
2022-10-12T17:02:31.588Z,71.67
2022-10-12T17:04:59.071Z,71.68
2022-10-12T17:07:26.991Z,71.97
2022-10-12T17:09:57.579Z,71.86
2022-10-12T17:12:26.350Z,71.86
2022-10-12T17:14:54.224Z,71.79
2022-10-12T17:17:21.918Z,72.01
2022-10-12T17:19:49.471Z,72.04
2022-10-12T17:22:17.533Z,72.11
2022-10-12T17:24:45.174Z,72.21
2022-10-12T17:27:14.655Z,72.04
2022-10-12T17:29:42.911Z,72.45
2022-10-12T17:32:11.057Z,72.36
2022-10-12T17:34:43.303Z,72.61
2022-10-12T17:37:13.958Z,72.54
2022-10-12T17:39:44.163Z,72.94
2022-10-12T17:42:14.349Z,72.75
2022-10-12T17:44:42.149Z,72.68
2022-10-12T17:47:09.744Z,72.55
2022-10-12T17:49:37.386Z,72.54
2022-10-12T17:52:05.120Z,72.29
2022-10-12T17:54:33.046Z,72.25
2022-10-12T17:57:00.572Z,72.15
2022-10-12T17:59:28.250Z,72.58
2022-10-12T18:01:55.819Z,72.46
2022-10-12T18:04:23.352Z,72.39
2022-10-12T18:06:51.165Z,72.32
2022-10-12T18:09:20.902Z,72.22
2022-10-12T18:11:48.923Z,72.26
2022-10-12T18:14:16.490Z,72.19
2022-10-12T18:16:44.036Z,72.41
2022-10-12T18:19:11.818Z,72.21
2022-10-12T18:21:40.149Z,72.11
2022-10-12T18:24:16.475Z,72.07
2022-10-12T18:26:46.103Z,72.00
2022-10-12T18:29:16.457Z,71.89
2022-10-12T18:31:44.045Z,71.99
2022-10-12T18:34:11.743Z,71.87
2022-10-12T18:36:40.888Z,71.96
2022-10-12T18:39:08.839Z,71.93
2022-10-12T18:41:36.540Z,71.62
2022-10-12T18:44:05.696Z,71.98
2022-10-12T18:46:35.389Z,71.73
2022-10-12T18:49:05.470Z,72.01
2022-10-12T18:51:35.253Z,71.97
2022-10-12T18:54:03.790Z,71.96
2022-10-12T18:56:32.895Z,72.43
2022-10-12T18:59:01.022Z,71.91
2022-10-12T19:01:30.260Z,72.18
2022-10-12T19:03:59.956Z,72.18
2022-10-12T19:06:34.204Z,72.73
2022-10-12T19:09:02.542Z,71.83
2022-10-12T19:11:49.428Z,72.20
2022-10-12T19:23:43.479Z,71.77
2022-10-12T19:42:38.534Z,70.02
2022-10-12T19:45:41.143Z,69.79
2022-10-12T19:48:09.519Z,70.29
2022-10-12T19:50:37.075Z,69.90
2022-10-12T19:53:05.075Z,70.34
2022-10-12T19:55:34.124Z,69.93
2022-10-12T19:58:16.962Z,70.48
2022-10-12T20:00:44.512Z,69.89
2022-10-12T20:03:12.355Z,70.01
2022-10-12T20:09:07.591Z,69.44
2022-10-12T20:11:35.626Z,69.48
2022-10-12T20:14:03.404Z,69.48
2022-10-12T20:16:34.822Z,69.45
2022-10-12T20:19:04.324Z,69.58
2022-10-12T20:21:31.835Z,69.10
2022-10-12T20:23:59.414Z,69.15
2022-10-12T20:26:27.412Z,69.22
2022-10-12T20:28:55.030Z,69.09
2022-10-12T20:31:27.561Z,69.14
2022-10-12T20:33:56.196Z,69.35
2022-10-12T20:36:26.429Z,69.28
2022-10-12T20:38:54.160Z,69.08
2022-10-12T20:41:22.019Z,68.71
2022-10-12T20:43:49.729Z,68.93
2022-10-12T20:46:18.198Z,68.91
2022-10-12T20:48:46.332Z,68.80
2022-10-12T20:51:27.707Z,69.63
2022-10-12T20:53:58.968Z,68.87
2022-10-12T20:56:28.402Z,68.61
2022-10-12T20:58:56.147Z,68.84
2022-10-12T21:01:25.974Z,68.76
2022-10-12T21:03:54.210Z,68.74
2022-10-12T21:06:23.552Z,68.76
2022-10-12T21:08:56.290Z,69.14
2022-10-12T21:11:24.766Z,68.72
2022-10-12T21:13:52.408Z,68.77
2022-10-12T21:16:22.171Z,68.74
2022-10-12T21:18:53.640Z,68.92
2022-10-12T21:21:21.315Z,68.36
2022-10-12T21:23:54.912Z,68.35
2022-10-12T21:26:27.333Z,68.11
2022-10-12T21:28:55.456Z,68.12
2022-10-12T21:31:28.204Z,68.13
2022-10-12T21:34:03.612Z,67.91
2022-10-12T21:36:32.816Z,67.78
2022-10-12T21:39:00.301Z,67.90
2022-10-12T21:41:29.213Z,67.88
2022-10-12T21:43:57.755Z,67.78
2022-10-12T21:46:30.553Z,67.71
2022-10-12T21:49:00.168Z,67.63
2022-10-12T21:51:31.691Z,67.57
2022-10-12T21:53:59.227Z,67.45
2022-10-12T21:56:29.209Z,67.87
2022-10-12T21:58:59.032Z,67.70
2022-10-12T22:01:34.619Z,68.13
2022-10-12T22:04:05.539Z,67.76
2022-10-12T22:06:34.550Z,67.59
2022-10-12T22:09:08.651Z,68.04
2022-10-12T22:11:37.361Z,67.75
2022-10-12T22:14:12.801Z,67.93
2022-10-12T22:16:40.573Z,67.91
2022-10-12T22:19:08.810Z,67.81
2022-10-12T22:21:36.700Z,68.06
2022-10-12T22:24:04.318Z,67.90
2022-10-12T22:26:32.307Z,67.82
2022-10-12T22:29:03.843Z,67.61
2022-10-12T22:31:31.482Z,67.61
2022-10-12T22:33:59.138Z,67.55
2022-10-12T22:36:28.939Z,67.52
2022-10-12T22:38:56.504Z,67.59
2022-10-12T22:41:24.601Z,67.29
2022-10-12T22:43:55.464Z,67.46
2022-10-12T22:46:25.111Z,67.37
2022-10-12T22:48:53.717Z,67.54
2022-10-12T22:51:33.157Z,67.71
2022-10-12T22:54:01.350Z,67.12
2022-10-12T22:56:29.942Z,67.10
2022-10-12T22:59:02.938Z,67.27
2022-10-12T23:01:30.652Z,67.18
2022-10-12T23:03:58.102Z,66.99
2022-10-12T23:06:26.117Z,66.97
2022-10-12T23:08:54.038Z,67.09
2022-10-12T23:11:25.042Z,66.99
2022-10-12T23:13:53.458Z,66.94
2022-10-12T23:16:23.803Z,67.33
2022-10-12T23:19:04.840Z,67.66
2022-10-12T23:21:33.943Z,67.44
2022-10-12T23:24:05.082Z,67.36
2022-10-12T23:26:33.628Z,67.55
2022-10-12T23:29:01.033Z,67.30
2022-10-12T23:31:30.697Z,67.60
2022-10-12T23:34:00.545Z,67.61
2022-10-12T23:36:28.455Z,67.46
2022-10-12T23:38:56.605Z,67.29
2022-10-12T23:41:24.699Z,66.95
2022-10-12T23:43:52.155Z,66.98
2022-10-12T23:46:19.680Z,66.73
2022-10-12T23:48:47.118Z,66.69
2022-10-12T23:51:14.603Z,66.51
2022-10-12T23:53:42.632Z,66.34
2022-10-12T23:56:10.475Z,66.18
2022-10-12T23:58:38.571Z,66.15
